sensor_id;sensor_type;location;lat;lon;timestamp;P1;durP1;ratioP1;P2;durP2;ratioP2
12232;SDS011;6179;51.748;8.728;2023-03-12T00:03:53;5.13;;;3.00;;
12232;SDS011;6179;51.748;8.728;2023-03-12T00:09:54;9.40;;;5.20;;
12232;SDS011;6179;51.748;8.728;2023-03-12T00:15:55;6.70;;;4.60;;
12232;SDS011;6179;51.748;8.728;2023-03-12T00:21:56;22.37;;;7.03;;
12232;SDS011;6179;51.748;8.728;2023-03-12T00:27:56;13.53;;;5.40;;
12232;SDS011;6179;51.748;8.728;2023-03-12T00:33:58;11.90;;;2.77;;
12232;SDS011;6179;51.748;8.728;2023-03-12T00:40:01;12.93;;;4.07;;
12232;SDS011;6179;51.748;8.728;2023-03-12T00:46:04;7.33;;;2.83;;
12232;SDS011;6179;51.748;8.728;2023-03-12T00:52:05;7.40;;;3.80;;
12232;SDS011;6179;51.748;8.728;2023-03-12T00:58:06;17.67;;;5.17;;
12232;SDS011;6179;51.748;8.728;2023-03-12T01:04:07;7.63;;;3.10;;
12232;SDS011;6179;51.748;8.728;2023-03-12T01:10:08;5.47;;;3.47;;
12232;SDS011;6179;51.748;8.728;2023-03-12T01:16:14;12.93;;;5.17;;
12232;SDS011;6179;51.748;8.728;2023-03-12T01:22:14;10.20;;;3.90;;
12232;SDS011;6179;51.748;8.728;2023-03-12T01:28:15;12.10;;;5.27;;
12232;SDS011;6179;51.748;8.728;2023-03-12T01:34:17;8.20;;;5.00;;
12232;SDS011;6179;51.748;8.728;2023-03-12T01:40:18;9.37;;;4.53;;
12232;SDS011;6179;51.748;8.728;2023-03-12T01:52:35;17.13;;;5.60;;
12232;SDS011;6179;51.748;8.728;2023-03-12T01:58:39;9.53;;;5.17;;
12232;SDS011;6179;51.748;8.728;2023-03-12T02:04:46;4.23;;;3.70;;
12232;SDS011;6179;51.748;8.728;2023-03-12T02:10:50;9.00;;;4.80;;
12232;SDS011;6179;51.748;8.728;2023-03-12T02:16:51;8.47;;;4.07;;
12232;SDS011;6179;51.748;8.728;2023-03-12T02:23:01;6.40;;;3.10;;
12232;SDS011;6179;51.748;8.728;2023-03-12T02:29:12;12.53;;;3.30;;
12232;SDS011;6179;51.748;8.728;2023-03-12T02:35:13;5.67;;;3.80;;
12232;SDS011;6179;51.748;8.728;2023-03-12T02:41:29;3.13;;;2.80;;
12232;SDS011;6179;51.748;8.728;2023-03-12T02:47:52;7.53;;;3.20;;
12232;SDS011;6179;51.748;8.728;2023-03-12T02:53:53;6.10;;;2.60;;
12232;SDS011;6179;51.748;8.728;2023-03-12T02:59:54;4.00;;;2.73;;
12232;SDS011;6179;51.748;8.728;2023-03-12T03:05:55;4.87;;;1.60;;
12232;SDS011;6179;51.748;8.728;2023-03-12T03:11:56;2.30;;;1.30;;
12232;SDS011;6179;51.748;8.728;2023-03-12T03:17:57;2.77;;;2.50;;
12232;SDS011;6179;51.748;8.728;2023-03-12T03:23:58;3.93;;;3.17;;
12232;SDS011;6179;51.748;8.728;2023-03-12T03:29:59;1.80;;;1.60;;
12232;SDS011;6179;51.748;8.728;2023-03-12T03:36:00;13.13;;;2.10;;
12232;SDS011;6179;51.748;8.728;2023-03-12T03:42:01;7.90;;;1.60;;
12232;SDS011;6179;51.748;8.728;2023-03-12T03:48:02;4.00;;;1.23;;
12232;SDS011;6179;51.748;8.728;2023-03-12T03:54:04;0.90;;;0.70;;
12232;SDS011;6179;51.748;8.728;2023-03-12T04:00:05;7.53;;;1.37;;
12232;SDS011;6179;51.748;8.728;2023-03-12T04:06:08;1.87;;;0.87;;
12232;SDS011;6179;51.748;8.728;2023-03-12T04:12:10;4.03;;;1.47;;
12232;SDS011;6179;51.748;8.728;2023-03-12T04:18:11;1.90;;;1.53;;
12232;SDS011;6179;51.748;8.728;2023-03-12T04:24:13;4.23;;;1.00;;
12232;SDS011;6179;51.748;8.728;2023-03-12T04:30:16;7.20;;;1.63;;
12232;SDS011;6179;51.748;8.728;2023-03-12T04:36:17;1.00;;;1.00;;
12232;SDS011;6179;51.748;8.728;2023-03-12T04:42:18;1.53;;;1.20;;
12232;SDS011;6179;51.748;8.728;2023-03-12T04:48:19;0.70;;;0.50;;
12232;SDS011;6179;51.748;8.728;2023-03-12T04:54:20;5.40;;;1.37;;
12232;SDS011;6179;51.748;8.728;2023-03-12T05:00:21;8.43;;;0.80;;
12232;SDS011;6179;51.748;8.728;2023-03-12T05:06:22;4.20;;;1.10;;
12232;SDS011;6179;51.748;8.728;2023-03-12T05:12:24;4.43;;;1.63;;
12232;SDS011;6179;51.748;8.728;2023-03-12T05:18:25;5.20;;;1.00;;
12232;SDS011;6179;51.748;8.728;2023-03-12T05:24:26;0.80;;;0.60;;
12232;SDS011;6179;51.748;8.728;2023-03-12T05:30:27;7.80;;;1.50;;
12232;SDS011;6179;51.748;8.728;2023-03-12T05:36:28;9.13;;;0.80;;
12232;SDS011;6179;51.748;8.728;2023-03-12T05:42:29;2.23;;;0.83;;
12232;SDS011;6179;51.748;8.728;2023-03-12T05:48:29;2.50;;;1.33;;
12232;SDS011;6179;51.748;8.728;2023-03-12T05:54:30;0.57;;;0.57;;
12232;SDS011;6179;51.748;8.728;2023-03-12T06:00:32;4.03;;;1.17;;
12232;SDS011;6179;51.748;8.728;2023-03-12T06:06:37;1.93;;;0.40;;
12232;SDS011;6179;51.748;8.728;2023-03-12T06:12:38;0.70;;;0.50;;
12232;SDS011;6179;51.748;8.728;2023-03-12T06:18:39;1.00;;;0.60;;
12232;SDS011;6179;51.748;8.728;2023-03-12T06:24:40;1.07;;;0.70;;
12232;SDS011;6179;51.748;8.728;2023-03-12T06:30:41;0.50;;;0.50;;
12232;SDS011;6179;51.748;8.728;2023-03-12T06:36:42;1.63;;;0.60;;
12232;SDS011;6179;51.748;8.728;2023-03-12T06:42:44;0.70;;;0.50;;
12232;SDS011;6179;51.748;8.728;2023-03-12T06:48:45;0.50;;;0.50;;
12232;SDS011;6179;51.748;8.728;2023-03-12T06:54:46;2.37;;;0.40;;
12232;SDS011;6179;51.748;8.728;2023-03-12T07:00:47;1.00;;;0.43;;
12232;SDS011;6179;51.748;8.728;2023-03-12T07:06:49;2.70;;;0.80;;
12232;SDS011;6179;51.748;8.728;2023-03-12T07:12:50;5.10;;;0.60;;
12232;SDS011;6179;51.748;8.728;2023-03-12T07:18:51;16.07;;;0.80;;
12232;SDS011;6179;51.748;8.728;2023-03-12T07:24:52;6.43;;;2.53;;
12232;SDS011;6179;51.748;8.728;2023-03-12T07:30:58;1.07;;;0.60;;
12232;SDS011;6179;51.748;8.728;2023-03-12T07:37:00;1.23;;;0.60;;
12232;SDS011;6179;51.748;8.728;2023-03-12T07:43:02;4.10;;;0.80;;
12232;SDS011;6179;51.748;8.728;2023-03-12T07:49:10;0.50;;;0.50;;
12232;SDS011;6179;51.748;8.728;2023-03-12T07:55:10;0.53;;;0.53;;
12232;SDS011;6179;51.748;8.728;2023-03-12T08:01:12;6.60;;;0.87;;
12232;SDS011;6179;51.748;8.728;2023-03-12T08:07:13;0.40;;;0.40;;
12232;SDS011;6179;51.748;8.728;2023-03-12T08:13:14;3.27;;;0.53;;
12232;SDS011;6179;51.748;8.728;2023-03-12T08:19:15;3.87;;;0.90;;
12232;SDS011;6179;51.748;8.728;2023-03-12T08:25:16;4.23;;;1.57;;
12232;SDS011;6179;51.748;8.728;2023-03-12T08:31:17;7.40;;;0.70;;
12232;SDS011;6179;51.748;8.728;2023-03-12T08:37:18;0.90;;;0.50;;
12232;SDS011;6179;51.748;8.728;2023-03-12T08:43:19;4.57;;;0.40;;
12232;SDS011;6179;51.748;8.728;2023-03-12T08:49:20;2.93;;;0.80;;
12232;SDS011;6179;51.748;8.728;2023-03-12T08:55:22;5.40;;;0.47;;
12232;SDS011;6179;51.748;8.728;2023-03-12T09:01:22;1.00;;;0.60;;
12232;SDS011;6179;51.748;8.728;2023-03-12T09:07:23;0.73;;;0.50;;
12232;SDS011;6179;51.748;8.728;2023-03-12T09:13:24;1.67;;;0.97;;
12232;SDS011;6179;51.748;8.728;2023-03-12T09:19:25;1.17;;;0.50;;
12232;SDS011;6179;51.748;8.728;2023-03-12T09:25:25;1.17;;;0.80;;
12232;SDS011;6179;51.748;8.728;2023-03-12T09:31:26;2.93;;;1.23;;
12232;SDS011;6179;51.748;8.728;2023-03-12T09:37:27;27.67;;;1.40;;
12232;SDS011;6179;51.748;8.728;2023-03-12T09:43:31;4.43;;;1.40;;
12232;SDS011;6179;51.748;8.728;2023-03-12T09:49:43;3.03;;;2.27;;
12232;SDS011;6179;51.748;8.728;2023-03-12T09:55:49;1.30;;;1.20;;
12232;SDS011;6179;51.748;8.728;2023-03-12T10:01:54;9.43;;;1.60;;
12232;SDS011;6179;51.748;8.728;2023-03-12T10:08:01;5.43;;;2.57;;
12232;SDS011;6179;51.748;8.728;2023-03-12T10:26:57;2.70;;;2.37;;
12232;SDS011;6179;51.748;8.728;2023-03-12T10:33:01;4.37;;;2.50;;
12232;SDS011;6179;51.748;8.728;2023-03-12T10:39:14;5.83;;;2.47;;
12232;SDS011;6179;51.748;8.728;2023-03-12T10:52:15;4.93;;;3.03;;
12232;SDS011;6179;51.748;8.728;2023-03-12T10:58:22;3.57;;;2.87;;
12232;SDS011;6179;51.748;8.728;2023-03-12T11:04:28;5.23;;;2.90;;
12232;SDS011;6179;51.748;8.728;2023-03-12T11:10:42;3.97;;;3.00;;
12232;SDS011;6179;51.748;8.728;2023-03-12T11:16:46;7.27;;;3.00;;
12232;SDS011;6179;51.748;8.728;2023-03-12T11:22:48;10.80;;;2.83;;
12232;SDS011;6179;51.748;8.728;2023-03-12T11:28:50;6.23;;;2.10;;
12232;SDS011;6179;51.748;8.728;2023-03-12T11:35:00;7.33;;;2.50;;
12232;SDS011;6179;51.748;8.728;2023-03-12T11:41:20;4.90;;;3.33;;
12232;SDS011;6179;51.748;8.728;2023-03-12T11:47:42;6.87;;;2.40;;
12232;SDS011;6179;51.748;8.728;2023-03-12T12:00:40;6.77;;;3.70;;
12232;SDS011;6179;51.748;8.728;2023-03-12T12:26:30;3.20;;;2.87;;
12232;SDS011;6179;51.748;8.728;2023-03-12T12:38:43;5.40;;;3.70;;
12232;SDS011;6179;51.748;8.728;2023-03-12T12:44:54;5.00;;;3.43;;
12232;SDS011;6179;51.748;8.728;2023-03-12T12:51:01;9.27;;;6.30;;
12232;SDS011;6179;51.748;8.728;2023-03-12T12:57:07;5.30;;;3.97;;
12232;SDS011;6179;51.748;8.728;2023-03-12T13:03:15;3.20;;;2.90;;
12232;SDS011;6179;51.748;8.728;2023-03-12T13:09:21;4.20;;;1.60;;
12232;SDS011;6179;51.748;8.728;2023-03-12T13:15:37;1.50;;;1.07;;
12232;SDS011;6179;51.748;8.728;2023-03-12T13:34:55;5.47;;;1.27;;
12232;SDS011;6179;51.748;8.728;2023-03-12T13:40:57;12.33;;;1.10;;
12232;SDS011;6179;51.748;8.728;2023-03-12T13:53:37;3.20;;;1.23;;
12232;SDS011;6179;51.748;8.728;2023-03-12T13:59:43;3.07;;;1.27;;
12232;SDS011;6179;51.748;8.728;2023-03-12T14:12:08;4.97;;;1.83;;
12232;SDS011;6179;51.748;8.728;2023-03-12T14:18:33;11.10;;;2.50;;
12232;SDS011;6179;51.748;8.728;2023-03-12T14:24:38;6.93;;;2.30;;
12232;SDS011;6179;51.748;8.728;2023-03-12T14:37:00;2.63;;;1.70;;
12232;SDS011;6179;51.748;8.728;2023-03-12T14:43:27;4.43;;;2.30;;
12232;SDS011;6179;51.748;8.728;2023-03-12T14:49:31;2.07;;;1.50;;
12232;SDS011;6179;51.748;8.728;2023-03-12T14:55:39;4.60;;;2.50;;
12232;SDS011;6179;51.748;8.728;2023-03-12T15:01:40;10.70;;;3.30;;
12232;SDS011;6179;51.748;8.728;2023-03-12T15:07:40;16.53;;;3.80;;
12232;SDS011;6179;51.748;8.728;2023-03-12T15:13:42;5.90;;;2.97;;
12232;SDS011;6179;51.748;8.728;2023-03-12T15:19:44;10.17;;;3.40;;
12232;SDS011;6179;51.748;8.728;2023-03-12T15:25:47;4.53;;;2.83;;
12232;SDS011;6179;51.748;8.728;2023-03-12T15:32:27;10.53;;;2.90;;
12232;SDS011;6179;51.748;8.728;2023-03-12T15:38:30;8.00;;;2.17;;
12232;SDS011;6179;51.748;8.728;2023-03-12T15:44:46;6.67;;;3.47;;
12232;SDS011;6179;51.748;8.728;2023-03-12T15:50:53;8.27;;;3.00;;
12232;SDS011;6179;51.748;8.728;2023-03-12T15:57:09;22.67;;;3.60;;
12232;SDS011;6179;51.748;8.728;2023-03-12T16:03:22;7.70;;;3.43;;
12232;SDS011;6179;51.748;8.728;2023-03-12T16:09:24;4.27;;;2.47;;
12232;SDS011;6179;51.748;8.728;2023-03-12T16:15:30;13.00;;;4.80;;
12232;SDS011;6179;51.748;8.728;2023-03-12T16:21:35;3.00;;;2.00;;
12232;SDS011;6179;51.748;8.728;2023-03-12T16:27:36;9.07;;;2.10;;
12232;SDS011;6179;51.748;8.728;2023-03-12T16:33:45;13.03;;;3.60;;
12232;SDS011;6179;51.748;8.728;2023-03-12T16:39:46;14.30;;;3.27;;
12232;SDS011;6179;51.748;8.728;2023-03-12T16:45:48;10.83;;;2.23;;
12232;SDS011;6179;51.748;8.728;2023-03-12T16:51:51;7.60;;;2.73;;
12232;SDS011;6179;51.748;8.728;2023-03-12T16:57:54;10.27;;;2.47;;
12232;SDS011;6179;51.748;8.728;2023-03-12T17:04:00;18.57;;;3.30;;
12232;SDS011;6179;51.748;8.728;2023-03-12T17:10:02;11.10;;;2.37;;
12232;SDS011;6179;51.748;8.728;2023-03-12T17:16:04;9.70;;;2.60;;
12232;SDS011;6179;51.748;8.728;2023-03-12T17:22:05;12.93;;;3.23;;
12232;SDS011;6179;51.748;8.728;2023-03-12T17:28:07;9.40;;;1.87;;
12232;SDS011;6179;51.748;8.728;2023-03-12T17:34:08;31.00;;;2.70;;
12232;SDS011;6179;51.748;8.728;2023-03-12T17:40:09;12.23;;;2.63;;
12232;SDS011;6179;51.748;8.728;2023-03-12T17:46:11;11.83;;;3.33;;
12232;SDS011;6179;51.748;8.728;2023-03-12T17:52:11;22.67;;;2.10;;
12232;SDS011;6179;51.748;8.728;2023-03-12T17:58:12;16.17;;;3.80;;
12232;SDS011;6179;51.748;8.728;2023-03-12T18:04:13;10.83;;;1.80;;
12232;SDS011;6179;51.748;8.728;2023-03-12T18:10:14;33.13;;;3.57;;
12232;SDS011;6179;51.748;8.728;2023-03-12T18:16:16;29.50;;;2.60;;
12232;SDS011;6179;51.748;8.728;2023-03-12T18:22:17;13.10;;;2.27;;
12232;SDS011;6179;51.748;8.728;2023-03-12T18:28:18;25.37;;;2.10;;
12232;SDS011;6179;51.748;8.728;2023-03-12T18:34:20;24.57;;;2.13;;
12232;SDS011;6179;51.748;8.728;2023-03-12T18:40:22;48.80;;;3.70;;
12232;SDS011;6179;51.748;8.728;2023-03-12T18:46:23;29.67;;;3.40;;
12232;SDS011;6179;51.748;8.728;2023-03-12T18:52:24;19.03;;;3.17;;
12232;SDS011;6179;51.748;8.728;2023-03-12T18:58:26;12.47;;;2.23;;
12232;SDS011;6179;51.748;8.728;2023-03-12T19:04:27;10.90;;;1.10;;
12232;SDS011;6179;51.748;8.728;2023-03-12T19:10:28;25.53;;;3.53;;
12232;SDS011;6179;51.748;8.728;2023-03-12T19:16:29;10.97;;;2.53;;
12232;SDS011;6179;51.748;8.728;2023-03-12T19:22:30;15.57;;;1.80;;
12232;SDS011;6179;51.748;8.728;2023-03-12T19:28:31;14.73;;;1.70;;
12232;SDS011;6179;51.748;8.728;2023-03-12T19:34:33;10.70;;;1.57;;
12232;SDS011;6179;51.748;8.728;2023-03-12T19:40:34;9.87;;;3.17;;
12232;SDS011;6179;51.748;8.728;2023-03-12T19:46:35;10.73;;;1.67;;
12232;SDS011;6179;51.748;8.728;2023-03-12T19:52:36;4.97;;;1.00;;
12232;SDS011;6179;51.748;8.728;2023-03-12T19:58:37;26.13;;;1.87;;
12232;SDS011;6179;51.748;8.728;2023-03-12T20:04:38;29.90;;;2.10;;
12232;SDS011;6179;51.748;8.728;2023-03-12T20:10:39;12.10;;;2.87;;
12232;SDS011;6179;51.748;8.728;2023-03-12T20:16:40;12.00;;;2.23;;
12232;SDS011;6179;51.748;8.728;2023-03-12T20:22:41;20.00;;;1.43;;
12232;SDS011;6179;51.748;8.728;2023-03-12T20:28:41;14.10;;;2.00;;
12232;SDS011;6179;51.748;8.728;2023-03-12T20:34:42;12.33;;;1.47;;
12232;SDS011;6179;51.748;8.728;2023-03-12T20:40:44;12.03;;;1.40;;
12232;SDS011;6179;51.748;8.728;2023-03-12T20:46:45;17.83;;;2.40;;
12232;SDS011;6179;51.748;8.728;2023-03-12T20:52:49;30.13;;;1.63;;
12232;SDS011;6179;51.748;8.728;2023-03-12T20:58:49;10.20;;;1.40;;
12232;SDS011;6179;51.748;8.728;2023-03-12T21:04:51;22.80;;;2.00;;
12232;SDS011;6179;51.748;8.728;2023-03-12T21:10:52;12.57;;;1.03;;
12232;SDS011;6179;51.748;8.728;2023-03-12T21:16:54;14.73;;;1.57;;
12232;SDS011;6179;51.748;8.728;2023-03-12T21:22:56;7.40;;;1.07;;
12232;SDS011;6179;51.748;8.728;2023-03-12T21:28:57;19.33;;;2.47;;
12232;SDS011;6179;51.748;8.728;2023-03-12T21:34:58;13.80;;;3.53;;
12232;SDS011;6179;51.748;8.728;2023-03-12T21:41:09;9.30;;;1.83;;
12232;SDS011;6179;51.748;8.728;2023-03-12T21:47:13;12.40;;;1.67;;
12232;SDS011;6179;51.748;8.728;2023-03-12T21:53:14;27.90;;;1.67;;
12232;SDS011;6179;51.748;8.728;2023-03-12T21:59:15;17.93;;;1.70;;
12232;SDS011;6179;51.748;8.728;2023-03-12T22:05:16;22.40;;;2.13;;
12232;SDS011;6179;51.748;8.728;2023-03-12T22:11:16;11.10;;;2.10;;
12232;SDS011;6179;51.748;8.728;2023-03-12T22:17:17;16.03;;;1.87;;
12232;SDS011;6179;51.748;8.728;2023-03-12T22:23:18;7.90;;;1.23;;
12232;SDS011;6179;51.748;8.728;2023-03-12T22:29:20;14.47;;;1.43;;
12232;SDS011;6179;51.748;8.728;2023-03-12T22:35:21;23.50;;;2.70;;
12232;SDS011;6179;51.748;8.728;2023-03-12T22:41:26;9.77;;;1.90;;
12232;SDS011;6179;51.748;8.728;2023-03-12T22:47:28;10.37;;;1.57;;
12232;SDS011;6179;51.748;8.728;2023-03-12T22:53:29;27.77;;;2.03;;
12232;SDS011;6179;51.748;8.728;2023-03-12T22:59:31;16.80;;;2.30;;
12232;SDS011;6179;51.748;8.728;2023-03-12T23:05:33;30.97;;;2.27;;
12232;SDS011;6179;51.748;8.728;2023-03-12T23:11:34;8.10;;;1.30;;
12232;SDS011;6179;51.748;8.728;2023-03-12T23:17:35;16.40;;;1.43;;
12232;SDS011;6179;51.748;8.728;2023-03-12T23:23:36;5.53;;;1.00;;
12232;SDS011;6179;51.748;8.728;2023-03-12T23:29:40;18.27;;;1.10;;
12232;SDS011;6179;51.748;8.728;2023-03-12T23:35:40;10.70;;;1.10;;
12232;SDS011;6179;51.748;8.728;2023-03-12T23:41:41;11.70;;;1.33;;
12232;SDS011;6179;51.748;8.728;2023-03-12T23:47:42;23.07;;;1.03;;
12232;SDS011;6179;51.748;8.728;2023-03-12T23:53:44;13.57;;;1.27;;
12232;SDS011;6179;51.748;8.728;2023-03-12T23:59:48;22.23;;;1.50;;
